Time;durP1;ratioP1;P1;durP2;ratioP2;P2;SDS_P1;SDS_P2;PMS_P1;PMS_P2;Temp;Humidity;BMP_temperature;BMP_pressure;BME280_temperature;BME280_humidity;BME280_pressure;Samples;Min_cycle;Max_cycle;Signal;HPM_P1;HPM_P2
2023/06/06 00:01:17;;;;;;;9.57;4.90;;;;;;;-145.18;100.00;46677.97;5006238;28;20030;-61
2023/06/06 00:03:44;;;;;;;13.07;5.33;;;;;;;-145.18;100.00;46677.97;5009134;28;20049;-61
2023/06/06 00:06:10;;;;;;;11.37;6.07;;;;;;;-145.18;100.00;46681.88;5011406;28;20368;-61
2023/06/06 00:08:36;;;;;;;12.90;5.80;;;;;;;-145.18;100.00;46679.94;4990250;28;20037;-61
2023/06/06 00:11:01;;;;;;;10.33;5.40;;;;;;;-145.18;100.00;46674.06;5001845;28;20445;-61
2023/06/06 00:13:27;;;;;;;10.17;5.67;;;;;;;-145.18;100.00;46677.97;4977082;28;20308;-61
2023/06/06 00:15:54;;;;;;;12.63;5.23;;;;;;;-145.18;100.00;46674.06;5006736;28;20058;-61
2023/06/06 00:18:19;;;;;;;11.07;4.93;;;;;;;-145.18;100.00;46676.03;5003158;28;20088;-61
2023/06/06 00:20:45;;;;;;;12.43;5.77;;;;;;;-145.18;100.00;46676.03;4992407;28;20034;-61
2023/06/06 00:23:12;;;;;;;12.17;5.60;;;;;;;-145.18;100.00;46676.03;5008084;28;20041;-61
2023/06/06 00:25:38;;;;;;;8.33;4.73;;;;;;;-145.18;100.00;46674.06;4986505;28;20083;-61
2023/06/06 00:28:03;;;;;;;9.13;5.10;;;;;;;-145.18;100.00;46676.03;5007653;28;20037;-61
2023/06/06 00:30:29;;;;;;;10.50;5.63;;;;;;;-145.18;100.00;46674.06;5005251;28;20041;-61
2023/06/06 00:32:54;;;;;;;9.83;5.13;;;;;;;-145.18;100.00;46672.13;5009150;28;20422;-61
2023/06/06 00:35:19;;;;;;;11.63;5.60;;;;;;;-145.18;100.00;46668.22;5006474;28;20073;-62
2023/06/06 00:37:45;;;;;;;11.03;5.53;;;;;;;-145.18;100.00;46670.16;5005680;28;20040;-61
2023/06/06 00:40:11;;;;;;;12.53;4.93;;;;;;;-145.18;100.00;46672.13;5008299;28;20045;-62
2023/06/06 00:42:36;;;;;;;10.43;5.13;;;;;;;-145.18;100.00;46670.16;5004311;28;20037;-62
2023/06/06 00:45:02;;;;;;;13.13;5.60;;;;;;;-145.18;100.00;46677.97;5002937;28;20037;-61
2023/06/06 00:47:28;;;;;;;11.23;5.47;;;;;;;-145.18;100.00;46668.22;4986845;28;20033;-61
2023/06/06 00:49:53;;;;;;;13.07;5.80;;;;;;;-145.18;100.00;46670.16;5005235;28;20052;-61
2023/06/06 00:52:19;;;;;;;11.83;6.30;;;;;;;-145.18;100.00;46668.22;4988067;28;20072;-62
2023/06/06 00:54:45;;;;;;;11.13;5.27;;;;;;;-145.18;100.00;46666.25;4994494;28;20049;-61
2023/06/06 00:57:12;;;;;;;13.00;5.80;;;;;;;-145.18;100.00;46664.31;5002996;28;20030;-61
2023/06/06 00:59:38;;;;;;;13.43;5.50;;;;;;;-145.18;100.00;46660.41;5009936;28;20446;-61
2023/06/06 01:02:09;;;;;;;12.50;5.87;;;;;;;-145.18;100.00;46662.34;4988855;28;20041;-61
2023/06/06 01:04:39;;;;;;;9.00;5.60;;;;;;;-145.18;100.00;46664.31;5007295;28;20188;-61
2023/06/06 01:07:06;;;;;;;8.67;4.93;;;;;;;-145.18;100.00;46660.41;5003367;28;20617;-61
2023/06/06 01:09:32;;;;;;;10.93;6.03;;;;;;;-145.18;100.00;46660.41;4984613;28;20668;-61
2023/06/06 01:12:31;;;;;;;15.87;6.07;;;;;;;-145.18;100.00;46656.50;5009296;28;20275;-61
2023/06/06 01:15:06;;;;;;;12.80;5.63;;;;;;;-145.18;100.00;46654.53;5005115;28;20815;-61
2023/06/06 01:17:33;;;;;;;10.43;5.93;;;;;;;-145.18;100.00;46660.41;5000299;28;20295;-61
2023/06/06 01:20:00;;;;;;;9.77;5.67;;;;;;;-145.18;100.00;46656.50;4970334;28;20100;-61
2023/06/06 01:22:28;;;;;;;12.13;5.33;;;;;;;-145.18;100.00;46660.41;4998351;28;20042;-61
2023/06/06 01:24:55;;;;;;;12.53;5.47;;;;;;;-145.18;100.00;46656.50;5001757;28;20488;-61
2023/06/06 01:27:21;;;;;;;13.20;6.83;;;;;;;-145.18;100.00;46662.34;5007931;28;20045;-61
2023/06/06 01:29:48;;;;;;;10.97;6.20;;;;;;;-145.18;100.00;46650.63;5008958;28;20287;-61
2023/06/06 01:32:26;;;;;;;13.63;6.60;;;;;;;-145.18;100.00;46658.44;5007312;28;20027;-61
2023/06/06 01:35:14;;;;;;;15.67;6.47;;;;;;;-145.18;100.00;46652.59;5002612;28;20511;-61
2023/06/06 01:37:48;;;;;;;12.40;6.17;;;;;;;-145.18;100.00;46654.53;5005466;28;20267;-61
2023/06/06 01:40:17;;;;;;;12.57;6.20;;;;;;;-145.18;100.00;46656.50;5003161;28;20026;-61
2023/06/06 01:42:50;;;;;;;12.63;6.57;;;;;;;-145.18;100.00;46652.59;4997480;28;20761;-61
2023/06/06 01:45:19;;;;;;;12.33;6.27;;;;;;;-145.18;100.00;46656.50;5006004;28;20262;-61
2023/06/06 01:47:45;;;;;;;18.20;6.87;;;;;;;-145.18;100.00;46652.59;5004530;28;20790;-61
2023/06/06 01:50:12;;;;;;;13.57;6.67;;;;;;;-145.18;100.00;46652.59;5010439;28;20675;-62
2023/06/06 01:52:37;;;;;;;14.50;6.40;;;;;;;-145.18;100.00;46654.53;4999073;28;20026;-61
2023/06/06 01:55:04;;;;;;;11.17;6.07;;;;;;;-145.18;100.00;46654.53;5004619;28;20282;-61
2023/06/06 01:57:30;;;;;;;13.87;7.33;;;;;;;-145.18;100.00;46656.50;5003734;28;20516;-61
2023/06/06 01:59:55;;;;;;;13.60;6.20;;;;;;;-145.18;100.00;46652.59;4993002;28;20283;-62
2023/06/06 02:02:21;;;;;;;14.40;6.83;;;;;;;-145.18;100.00;46652.59;5006157;28;20030;-61
2023/06/06 02:04:48;;;;;;;12.80;6.43;;;;;;;-145.18;100.00;46654.53;5008479;28;20113;-61
2023/06/06 02:07:15;;;;;;;10.30;6.07;;;;;;;-145.18;100.00;46656.50;5002681;28;20554;-61
2023/06/06 02:09:41;;;;;;;13.87;6.90;;;;;;;-145.18;100.00;46652.59;5003812;28;20816;-62
2023/06/06 02:12:07;;;;;;;13.67;6.37;;;;;;;-145.18;100.00;46652.59;5009417;28;20282;-61
2023/06/06 02:14:33;;;;;;;12.07;6.70;;;;;;;-145.18;100.00;46650.63;5013895;28;20259;-61
2023/06/06 02:16:58;;;;;;;17.00;6.20;;;;;;;-145.18;100.00;46654.53;4988789;28;20534;-61
2023/06/06 02:19:23;;;;;;;15.00;6.50;;;;;;;-145.18;100.00;46656.50;4988936;28;20038;-61
2023/06/06 02:21:50;;;;;;;16.03;7.30;;;;;;;-145.18;100.00;46644.78;5010897;28;20111;-62
2023/06/06 02:24:15;;;;;;;11.37;7.10;;;;;;;-145.18;100.00;46648.69;5013100;28;20064;-62
2023/06/06 02:26:42;;;;;;;10.30;5.93;;;;;;;-145.18;100.00;46654.53;5012452;28;20124;-62
2023/06/06 02:29:08;;;;;;;12.93;6.67;;;;;;;-145.18;100.00;46650.63;5011325;28;20030;-61
2023/06/06 02:31:36;;;;;;;15.23;6.83;;;;;;;-145.18;100.00;46644.78;4982699;28;20367;-61
2023/06/06 02:34:02;;;;;;;17.23;7.47;;;;;;;-145.18;100.00;46648.69;5007658;28;20030;-61
2023/06/06 02:36:29;;;;;;;13.50;6.83;;;;;;;-145.18;100.00;46644.78;5008950;28;20318;-61
2023/06/06 02:38:55;;;;;;;13.37;6.67;;;;;;;-145.18;100.00;46648.69;5012895;28;20037;-61
2023/06/06 02:41:21;;;;;;;11.13;5.90;;;;;;;-145.18;100.00;46648.69;4987531;28;20323;-62
2023/06/06 02:43:47;;;;;;;16.30;6.97;;;;;;;-145.18;100.00;46644.78;5000147;28;20803;-61
2023/06/06 02:46:12;;;;;;;12.77;6.57;;;;;;;-145.18;100.00;46644.78;5002756;28;20076;-61
2023/06/06 02:48:37;;;;;;;12.77;6.63;;;;;;;-145.18;100.00;46648.69;5007163;28;20419;-62
2023/06/06 02:51:03;;;;;;;15.67;6.43;;;;;;;-145.18;100.00;46650.63;5012562;28;20018;-61
2023/06/06 02:53:31;;;;;;;16.37;7.07;;;;;;;-145.18;100.00;46644.78;5011054;28;20022;-62
2023/06/06 02:55:56;;;;;;;13.83;6.27;;;;;;;-145.18;100.00;46650.63;5003911;28;20792;-61
2023/06/06 02:58:27;;;;;;;14.23;6.67;;;;;;;-145.18;100.00;46644.78;5011227;28;20315;-61
2023/06/06 03:00:54;;;;;;;13.60;7.47;;;;;;;-145.18;100.00;46646.72;5002999;28;20510;-61
2023/06/06 03:03:20;;;;;;;13.17;6.57;;;;;;;-145.18;100.00;46648.69;5003818;28;20690;-62
2023/06/06 03:05:51;;;;;;;17.97;6.90;;;;;;;-145.18;100.00;46642.81;5005088;28;20339;-62
2023/06/06 03:08:19;;;;;;;17.20;7.30;;;;;;;-145.18;100.00;46642.81;5007722;28;20033;-62
2023/06/06 03:10:49;;;;;;;14.70;7.03;;;;;;;-145.18;100.00;46644.78;5008723;28;20271;-62
2023/06/06 03:13:16;;;;;;;14.27;7.60;;;;;;;-145.18;100.00;46642.81;5003618;28;20279;-61
2023/06/06 03:15:44;;;;;;;14.00;7.73;;;;;;;-145.18;100.00;46650.63;5005183;28;20274;-61
2023/06/06 03:18:17;;;;;;;18.07;6.90;;;;;;;-145.18;100.00;46642.81;5010754;28;20610;-62
2023/06/06 03:20:48;;;;;;;12.47;7.00;;;;;;;-145.18;100.00;46644.78;5003548;28;20318;-61
2023/06/06 03:23:13;;;;;;;18.83;7.40;;;;;;;-145.18;100.00;46648.69;5003978;28;20263;-61
2023/06/06 03:25:43;;;;;;;13.83;6.77;;;;;;;-145.18;100.00;46642.81;5006873;28;20676;-61
2023/06/06 03:28:12;;;;;;;14.57;6.60;;;;;;;-145.18;100.00;46642.81;4987748;28;20122;-61
2023/06/06 03:30:38;;;;;;;16.77;7.00;;;;;;;-145.18;100.00;46642.81;5004413;28;20283;-62
2023/06/06 03:33:06;;;;;;;14.17;6.70;;;;;;;-145.18;100.00;46646.72;5010753;28;20275;-62
2023/06/06 03:35:33;;;;;;;11.73;6.40;;;;;;;-145.18;100.00;46640.88;5000658;28;20282;-61
2023/06/06 03:38:00;;;;;;;16.80;7.57;;;;;;;-145.18;100.00;46640.88;5007161;28;20406;-62
2023/06/06 03:40:25;;;;;;;19.57;7.07;;;;;;;-145.18;100.00;46642.81;5001437;28;20276;-62
2023/06/06 03:42:52;;;;;;;13.70;6.87;;;;;;;-145.18;100.00;46646.72;5008747;28;20283;-61
2023/06/06 03:45:17;;;;;;;13.63;6.83;;;;;;;-145.18;100.00;46640.88;5003026;28;20025;-61
2023/06/06 03:47:44;;;;;;;15.57;6.73;;;;;;;-145.18;100.00;46644.78;5004171;28;20274;-62
2023/06/06 03:50:10;;;;;;;12.30;6.23;;;;;;;-145.18;100.00;46638.91;5001568;28;20030;-61
2023/06/06 03:52:35;;;;;;;15.43;7.20;;;;;;;-145.18;100.00;46642.81;5009203;28;20263;-62
2023/06/06 03:55:01;;;;;;;17.20;7.10;;;;;;;-145.18;100.00;46638.91;5010283;28;20823;-62
2023/06/06 03:57:26;;;;;;;18.40;6.80;;;;;;;-145.18;100.00;46638.91;5008245;28;20614;-62
2023/06/06 03:59:52;;;;;;;14.00;6.53;;;;;;;-145.18;100.00;46644.78;5009352;28;20045;-62
2023/06/06 04:02:18;;;;;;;15.73;7.50;;;;;;;-145.18;100.00;46640.88;5009204;28;20030;-62
2023/06/06 04:04:43;;;;;;;14.47;6.40;;;;;;;-145.18;100.00;46638.91;5006106;28;20038;-61
2023/06/06 04:07:09;;;;;;;15.87;6.60;;;;;;;-145.18;100.00;46646.72;5010482;28;20395;-62
2023/06/06 04:09:35;;;;;;;14.33;6.43;;;;;;;-145.18;100.00;46644.78;5007035;28;20157;-62
2023/06/06 04:12:02;;;;;;;14.77;7.83;;;;;;;-145.18;100.00;46650.63;4990885;28;20776;-62
2023/06/06 04:14:27;;;;;;;14.23;6.57;;;;;;;-145.18;100.00;46644.78;5005808;28;20308;-61
2023/06/06 04:16:53;;;;;;;13.37;6.67;;;;;;;-145.18;100.00;46638.91;5005732;28;20311;-62
2023/06/06 04:19:19;;;;;;;11.90;6.50;;;;;;;-145.18;100.00;46644.78;5006028;28;20037;-62
2023/06/06 04:21:50;;;;;;;16.07;7.03;;;;;;;-145.18;100.00;46642.81;5007076;28;20472;-61
2023/06/06 04:24:16;;;;;;;12.03;6.33;;;;;;;-145.18;100.00;46642.81;4992676;28;20272;-62
2023/06/06 04:26:42;;;;;;;18.97;8.07;;;;;;;-145.18;100.00;46642.81;5002926;28;20287;-62
2023/06/06 04:29:08;;;;;;;13.93;6.07;;;;;;;-145.18;100.00;46648.69;5009687;28;20271;-62
2023/06/06 04:31:33;;;;;;;16.83;6.63;;;;;;;-145.18;100.00;46640.88;4976632;28;20041;-61
2023/06/06 04:34:03;;;;;;;14.60;6.40;;;;;;;-145.18;100.00;46640.88;5004192;28;20038;-62
2023/06/06 04:36:32;;;;;;;18.73;6.33;;;;;;;-145.18;100.00;46646.72;5004711;28;20034;-61
2023/06/06 04:39:00;;;;;;;14.23;7.33;;;;;;;-145.18;100.00;46646.72;4998957;28;20784;-62
2023/06/06 04:41:30;;;;;;;12.40;6.77;;;;;;;-145.18;100.00;46646.72;5000819;28;20644;-62
2023/06/06 04:43:56;;;;;;;12.83;5.77;;;;;;;-145.18;100.00;46642.81;5001443;28;20339;-62
2023/06/06 04:46:22;;;;;;;16.07;7.50;;;;;;;-145.18;100.00;46644.78;5003641;28;20259;-62
2023/06/06 04:48:54;;;;;;;15.13;6.57;;;;;;;-145.18;100.00;46642.81;5006164;28;20704;-62
2023/06/06 04:51:29;;;;;;;13.50;5.17;;;;;;;-145.18;100.00;46642.81;4998449;28;20088;-62
2023/06/06 04:53:57;;;;;;;;;;;;;;;-145.18;100.00;46644.78;5008709;28;20279;-62
2023/06/06 04:56:22;;;;;;;12.47;5.47;;;;;;;-145.18;100.00;46646.72;5001160;28;19996;-61
2023/06/06 04:58:48;;;;;;;10.33;6.07;;;;;;;-145.18;100.00;46646.72;5010403;28;20431;-61
2023/06/06 05:01:15;;;;;;;11.03;5.70;;;;;;;-145.18;100.00;46648.69;5002111;28;20040;-61
2023/06/06 05:03:41;;;;;;;9.80;5.83;;;;;;;-145.18;100.00;46644.78;5009749;28;20475;-62
2023/06/06 05:06:07;;;;;;;12.73;6.37;;;;;;;-145.18;100.00;46642.81;5002279;28;20279;-62
2023/06/06 05:08:40;;;;;;;18.00;6.07;;;;;;;-145.18;100.00;46648.69;5003720;28;20080;-61
2023/06/06 05:11:05;;;;;;;12.03;6.13;;;;;;;-145.18;100.00;46644.78;4998481;28;20407;-62
2023/06/06 05:13:31;;;;;;;12.13;5.33;;;;;;;-145.18;100.00;46644.78;5003105;28;20037;-62
2023/06/06 05:15:56;;;;;;;9.13;4.83;;;;;;;-145.18;100.00;46644.78;4988520;28;20037;-62
2023/06/06 05:18:22;;;;;;;9.23;5.07;;;;;;;-145.18;100.00;46648.69;4982733;28;20042;-62
2023/06/06 05:20:47;;;;;;;10.77;5.57;;;;;;;-145.18;100.00;46646.72;5006172;28;20022;-62
2023/06/06 05:23:12;;;;;;;9.63;5.80;;;;;;;-145.18;100.00;46646.72;4990555;28;20030;-62
2023/06/06 05:25:38;;;;;;;12.17;5.70;;;;;;;-145.18;100.00;46648.69;5004141;28;20030;-62
2023/06/06 05:28:03;;;;;;;11.93;5.70;;;;;;;-145.18;100.00;46640.88;5000476;28;20058;-62
2023/06/06 05:30:28;;;;;;;10.90;6.07;;;;;;;-145.18;100.00;46646.72;5001083;28;20025;-62
2023/06/06 05:32:54;;;;;;;12.53;5.30;;;;;;;-145.18;100.00;46646.72;4984341;28;20440;-62
2023/06/06 05:35:19;;;;;;;13.60;5.43;;;;;;;-145.18;100.00;46650.63;4980313;28;20044;-62
2023/06/06 05:37:45;;;;;;;13.10;5.53;;;;;;;-145.18;100.00;46644.78;5000936;28;20112;-61
2023/06/06 05:40:10;;;;;;;12.00;5.67;;;;;;;-145.18;100.00;46648.69;5009282;28;20045;-62
2023/06/06 05:42:36;;;;;;;11.20;5.90;;;;;;;-145.18;100.00;46646.72;5002196;28;20113;-62
2023/06/06 05:45:02;;;;;;;10.77;5.13;;;;;;;-145.18;100.00;46656.50;5004626;28;20046;-61
2023/06/06 05:47:27;;;;;;;15.67;5.23;;;;;;;-145.18;100.00;46654.53;5006796;28;20033;-62
2023/06/06 05:49:53;;;;;;;13.33;6.00;;;;;;;-145.18;100.00;46650.63;4997608;28;20037;-62
2023/06/06 05:52:18;;;;;;;12.80;5.70;;;;;;;-145.18;100.00;46650.63;4983802;28;20049;-62
2023/06/06 05:54:43;;;;;;;11.97;5.43;;;;;;;-145.18;100.00;46658.44;5006397;28;20038;-62
2023/06/06 05:57:20;;;;;;;9.80;5.43;;;;;;;-145.18;100.00;46652.59;5009497;28;20042;-62
2023/06/06 05:59:45;;;;;;;13.17;5.37;;;;;;;-145.18;100.00;46660.41;5004204;28;20038;-61
2023/06/06 06:02:13;;;;;;;15.53;5.97;;;;;;;-145.18;100.00;46662.34;5010758;28;20045;-62
2023/06/06 06:04:39;;;;;;;10.67;5.50;;;;;;;-145.18;100.00;46664.31;5004622;28;20112;-62
2023/06/06 06:07:05;;;;;;;13.20;5.87;;;;;;;-145.18;100.00;46666.25;5011504;28;20180;-62
2023/06/06 06:09:31;;;;;;;11.20;5.77;;;;;;;-145.18;100.00;46664.31;4989226;28;20120;-62
2023/06/06 06:11:56;;;;;;;8.60;5.23;;;;;;;-145.18;100.00;46666.25;4991443;28;20684;-62
2023/06/06 06:14:21;;;;;;;10.43;5.40;;;;;;;-145.18;100.00;46662.34;5000613;28;20038;-62
2023/06/06 06:16:47;;;;;;;12.80;5.20;;;;;;;-145.18;100.00;46660.41;5007861;28;20395;-62
2023/06/06 06:19:12;;;;;;;15.27;5.83;;;;;;;-145.18;100.00;46662.34;4983020;28;20113;-62
2023/06/06 06:21:38;;;;;;;12.63;5.30;;;;;;;-145.18;100.00;46662.34;5004481;28;20034;-62
2023/06/06 06:24:04;;;;;;;9.83;5.20;;;;;;;-145.18;100.00;46664.31;4985477;28;20254;-62
2023/06/06 06:26:29;;;;;;;12.57;5.80;;;;;;;-145.18;100.00;46666.25;4994345;28;20054;-62
2023/06/06 06:28:55;;;;;;;9.97;5.07;;;;;;;-145.18;100.00;46666.25;5006731;28;20109;-62
2023/06/06 06:31:20;;;;;;;12.07;6.13;;;;;;;-145.18;100.00;46664.31;5009402;28;20026;-62
2023/06/06 06:33:46;;;;;;;8.87;5.40;;;;;;;-145.18;100.00;46666.25;4988231;28;20034;-62
2023/06/06 06:36:11;;;;;;;12.77;5.63;;;;;;;-145.18;100.00;46658.44;5012851;28;20045;-62
2023/06/06 06:38:37;;;;;;;9.47;5.40;;;;;;;-145.18;100.00;46662.34;4985644;28;20030;-62
2023/06/06 06:41:03;;;;;;;14.30;5.77;;;;;;;-145.18;100.00;46668.22;4988466;28;20479;-62
2023/06/06 06:43:28;;;;;;;11.53;5.63;;;;;;;-145.18;100.00;46652.59;5012229;28;20030;-62
2023/06/06 06:45:54;;;;;;;14.10;5.43;;;;;;;-145.18;100.00;46656.50;4989196;28;20099;-62
2023/06/06 06:48:19;;;;;;;14.13;5.60;;;;;;;-145.18;100.00;46646.72;5011403;28;20826;-62
2023/06/06 06:50:45;;;;;;;8.20;4.93;;;;;;;-145.18;100.00;46640.88;4992560;28;20109;-62
2023/06/06 06:53:13;;;;;;;17.63;6.13;;;;;;;-145.18;100.00;46625.22;5011994;28;20057;-62
2023/06/06 06:55:39;;;;;;;12.00;5.20;;;;;;;-145.18;100.00;46605.69;5008137;28;20383;-62
2023/06/06 06:58:05;;;;;;;10.93;5.50;;;;;;;-145.18;100.00;46593.97;5005837;28;20041;-62
2023/06/06 07:00:31;;;;;;;10.77;5.40;;;;;;;-145.18;100.00;46593.97;4991916;28;20045;-62
2023/06/06 07:02:57;;;;;;;14.73;4.93;;;;;;;-145.18;100.00;46580.31;5008645;28;20034;-62
2023/06/06 07:05:23;;;;;;;13.70;5.60;;;;;;;-145.18;100.00;46570.53;5006259;28;20065;-62
2023/06/06 07:07:53;;;;;;;12.27;5.73;;;;;;;-145.18;100.00;46564.69;5004568;28;20448;-62
2023/06/06 07:10:20;;;;;;;15.60;5.23;;;;;;;-145.18;100.00;46552.97;5003626;28;20092;-62
2023/06/06 07:12:47;;;;;;;11.83;5.90;;;;;;;-145.18;100.00;46547.09;5004941;28;20042;-62
2023/06/06 07:15:12;;;;;;;9.90;5.50;;;;;;;-145.18;100.00;46535.38;5004382;28;20034;-62
2023/06/06 07:17:38;;;;;;;13.53;5.67;;;;;;;-145.18;100.00;46533.44;5004001;28;20046;-62
2023/06/06 07:20:05;;;;;;;10.90;5.30;;;;;;;-145.18;100.00;46531.47;5007398;28;20042;-62
2023/06/06 07:22:36;;;;;;;11.23;5.40;;;;;;;-145.18;100.00;46537.34;4998410;28;20488;-62
2023/06/06 07:25:02;;;;;;;11.77;5.60;;;;;;;-145.18;100.00;46535.38;4990231;28;20033;-62
2023/06/06 07:27:29;;;;;;;9.10;5.67;;;;;;;-145.18;100.00;46529.53;5004569;28;20054;-62
2023/06/06 07:29:54;;;;;;;10.77;5.20;;;;;;;-145.18;100.00;46531.47;5005218;28;20472;-62
2023/06/06 07:32:20;;;;;;;9.80;4.73;;;;;;;-145.18;100.00;46533.44;5008068;28;20038;-62
2023/06/06 07:34:45;;;;;;;10.77;4.53;;;;;;;-145.18;100.00;46531.47;5001803;28;20030;-62
2023/06/06 07:37:11;;;;;;;11.57;4.90;;;;;;;-145.18;100.00;46531.47;5013424;28;20041;-62
2023/06/06 07:39:36;;;;;;;9.87;5.50;;;;;;;-145.18;100.00;46541.25;5001187;28;20033;-62
2023/06/06 07:42:02;;;;;;;10.20;5.43;;;;;;;-145.18;100.00;46541.25;5010007;28;20470;-62
2023/06/06 07:44:27;;;;;;;9.10;4.87;;;;;;;-145.18;100.00;46551.00;5012517;28;20034;-62
2023/06/06 07:46:52;;;;;;;11.93;5.30;;;;;;;-145.18;100.00;46543.19;5013419;28;20041;-62
2023/06/06 07:49:18;;;;;;;10.73;4.57;;;;;;;-145.18;100.00;46556.88;5013232;28;20045;-62
2023/06/06 07:51:45;;;;;;;11.00;5.13;;;;;;;-145.18;100.00;46551.00;5013566;28;20037;-62
2023/06/06 07:54:11;;;;;;;9.50;5.03;;;;;;;-145.18;100.00;46552.97;5004597;28;20045;-62
2023/06/06 07:56:37;;;;;;;11.83;5.50;;;;;;;-145.18;100.00;46551.00;5004385;28;20034;-62
2023/06/06 07:59:03;;;;;;;8.30;4.67;;;;;;;-145.18;100.00;46549.06;4982664;28;20088;-62
2023/06/06 08:01:29;;;;;;;11.53;5.70;;;;;;;-145.18;100.00;46558.81;5004504;28;20045;-62
2023/06/06 08:03:55;;;;;;;9.57;4.30;;;;;;;-145.18;100.00;46556.88;4998029;28;20038;-62
2023/06/06 08:06:23;;;;;;;11.07;4.43;;;;;;;-145.18;100.00;46564.69;5001320;28;20034;-62
2023/06/06 08:08:49;;;;;;;11.70;5.47;;;;;;;-145.18;100.00;46560.78;5005827;28;20041;-63
2023/06/06 08:11:15;;;;;;;12.60;4.90;;;;;;;-145.18;100.00;46554.91;5001293;28;20597;-62
2023/06/06 08:13:41;;;;;;;10.57;4.93;;;;;;;-145.18;100.00;46570.53;5007067;28;20029;-62
2023/06/06 08:16:07;;;;;;;8.27;4.53;;;;;;;-145.18;100.00;46560.78;5006982;28;20037;-62
2023/06/06 08:18:32;;;;;;;8.83;4.90;;;;;;;-145.18;100.00;46574.44;5009711;28;20430;-62
2023/06/06 08:20:58;;;;;;;8.50;4.40;;;;;;;-145.18;100.00;46554.91;5010608;28;20398;-63
2023/06/06 08:23:23;;;;;;;8.97;4.73;;;;;;;-145.18;100.00;46562.72;5000798;28;20037;-62
2023/06/06 08:25:49;;;;;;;8.30;4.87;;;;;;;-145.18;100.00;46570.53;4999001;28;20033;-63
2023/06/06 08:28:15;;;;;;;11.30;5.37;;;;;;;-145.18;100.00;46568.59;5005563;28;20555;-62
2023/06/06 08:30:41;;;;;;;8.37;3.90;;;;;;;-145.18;100.00;46570.53;5000535;28;20041;-62
2023/06/06 08:33:06;;;;;;;7.60;4.30;;;;;;;-145.18;100.00;46584.22;4999290;28;20372;-62
2023/06/06 08:35:31;;;;;;;9.23;5.00;;;;;;;-145.18;100.00;46603.75;4996554;28;20042;-62
2023/06/06 08:37:57;;;;;;;12.10;4.33;;;;;;;-145.18;100.00;46611.56;5007766;28;20034;-62
2023/06/06 08:40:22;;;;;;;9.13;4.67;;;;;;;-145.18;100.00;46580.31;5005908;28;20121;-63
2023/06/06 08:42:52;;;;;;;8.93;4.23;;;;;;;-145.18;100.00;46597.88;5008464;28;20037;-62
2023/06/06 08:45:20;;;;;;;7.13;4.80;;;;;;;-145.18;100.00;46597.88;4999245;28;20041;-62
2023/06/06 08:47:48;;;;;;;10.80;4.57;;;;;;;-145.18;100.00;46584.22;5000280;28;20518;-63
2023/06/06 08:50:14;;;;;;;9.57;4.07;;;;;;;-145.18;100.00;46588.13;5005814;28;20467;-62
2023/06/06 08:52:41;;;;;;;10.37;4.50;;;;;;;-145.18;100.00;46590.06;5006232;28;20483;-62
2023/06/06 08:55:08;;;;;;;9.40;4.73;;;;;;;-145.18;100.00;46605.69;5007147;28;20083;-63
2023/06/06 08:57:34;;;;;;;9.03;4.57;;;;;;;-145.18;100.00;46593.97;5008718;28;20029;-62
2023/06/06 09:00:11;;;;;;;12.00;5.17;;;;;;;-145.18;100.00;46578.34;5006214;28;21483;-62
2023/06/06 09:02:40;;;;;;;7.17;4.43;;;;;;;-145.18;100.00;46652.59;5002798;28;20100;-63
2023/06/06 09:05:06;;;;;;;10.53;5.33;;;;;;;-145.18;100.00;46765.88;5006005;28;20030;-63
2023/06/06 09:07:33;;;;;;;12.93;5.00;;;;;;;-145.18;100.00;46633.06;5005796;28;20038;-62
2023/06/06 09:09:58;;;;;;;10.97;5.27;;;;;;;-145.18;100.00;46607.66;5000087;28;20034;-63
2023/06/06 09:12:24;;;;;;;10.50;4.43;;;;;;;-145.18;100.00;46572.50;5003163;28;20082;-63
2023/06/06 09:14:49;;;;;;;9.07;4.60;;;;;;;-145.18;100.00;46650.63;4990024;28;20515;-60
2023/06/06 09:17:15;;;;;;;9.17;5.00;;;;;;;-145.18;100.00;46662.34;5007275;28;20037;-63
2023/06/06 09:19:44;;;;;;;11.27;5.10;;;;;;;-145.18;100.00;46976.84;5004179;28;20804;-60
2023/06/06 09:22:10;;;;;;;8.83;3.97;;;;;;;-145.18;100.00;46844.00;5001161;28;20038;-63
2023/06/06 09:24:43;;;;;;;13.93;5.73;;;;;;;-145.18;100.00;47150.72;4997753;28;21497;-63
2023/06/06 09:27:26;;;;;;;9.73;4.70;;;;;;;-145.18;100.00;47219.09;5004879;28;20121;-61
2023/06/06 09:29:52;;;;;;;8.63;4.83;;;;;;;-145.18;100.00;47201.50;4989043;28;20034;-63
2023/06/06 09:32:29;;;;;;;9.57;4.70;;;;;;;-145.18;100.00;47205.41;5002031;28;20036;-63
2023/06/06 09:34:55;;;;;;;10.30;4.27;;;;;;;-145.18;100.00;47183.94;4998122;28;20101;-63
2023/06/06 09:37:23;;;;;;;8.27;4.73;;;;;;;-145.18;100.00;47219.09;5002955;28;20040;-63
2023/06/06 09:40:12;;;;;;;8.27;4.13;;;;;;;-145.18;100.00;47178.06;5005333;28;20483;-63
2023/06/06 09:42:40;;;;;;;6.83;4.20;;;;;;;-145.18;100.00;47164.38;5003287;28;20038;-63
2023/06/06 09:45:12;;;;;;;10.97;4.20;;;;;;;-145.18;100.00;47160.47;4980986;28;20042;-63
2023/06/06 09:47:41;;;;;;;9.43;4.53;;;;;;;-145.18;100.00;47125.31;5003375;28;20084;-63
2023/06/06 09:50:07;;;;;;;8.27;4.90;;;;;;;-145.18;100.00;47125.31;5000921;28;20488;-62
2023/06/06 09:52:33;;;;;;;10.10;4.40;;;;;;;-145.18;100.00;47125.31;4990350;28;20049;-63
2023/06/06 09:54:59;;;;;;;9.13;4.23;;;;;;;-145.18;100.00;47129.22;4999853;28;20063;-63
2023/06/06 09:57:26;;;;;;;7.27;4.10;;;;;;;-145.18;100.00;47121.41;5002662;28;20040;-63
2023/06/06 09:59:53;;;;;;;8.03;4.30;;;;;;;-145.18;100.00;47137.03;4998513;28;20519;-63
2023/06/06 10:02:22;;;;;;;7.73;4.83;;;;;;;-145.18;100.00;47115.56;4983919;28;20045;-62
2023/06/06 10:04:48;;;;;;;12.13;5.33;;;;;;;-145.18;100.00;47125.31;5004604;28;20121;-63
2023/06/06 10:07:16;;;;;;;12.10;4.80;;;;;;;-145.18;100.00;47133.13;5000470;28;20113;-63
2023/06/06 10:09:43;;;;;;;11.87;5.03;;;;;;;-145.18;100.00;47113.59;4998797;28;20114;-63
2023/06/06 10:12:09;;;;;;;11.53;4.70;;;;;;;-145.18;100.00;47135.09;5005627;28;20034;-62
2023/06/06 10:14:35;;;;;;;8.73;4.27;;;;;;;-145.18;100.00;47121.41;4996223;28;20054;-62
2023/06/06 10:17:01;;;;;;;11.00;4.63;;;;;;;-145.18;100.00;47119.47;5007542;28;20501;-63
2023/06/06 10:19:27;;;;;;;8.83;4.57;;;;;;;-145.18;100.00;47107.72;5001536;28;20025;-63
2023/06/06 10:21:54;;;;;;;9.17;4.50;;;;;;;-145.18;100.00;47123.38;5007938;28;20038;-63
2023/06/06 10:24:20;;;;;;;11.90;4.93;;;;;;;-145.18;100.00;47092.09;4998939;28;20038;-63
2023/06/06 10:26:50;;;;;;;7.20;4.03;;;;;;;-145.18;100.00;47088.19;5006464;28;20053;-63
2023/06/06 10:29:47;;;;;;;7.40;4.57;;;;;;;-145.18;100.00;47062.81;4995022;28;20049;-63
2023/06/06 10:32:24;;;;;;;12.37;5.20;;;;;;;-145.18;100.00;47068.66;5009499;28;20061;-63
2023/06/06 10:34:53;;;;;;;6.50;4.07;;;;;;;-145.18;100.00;47051.09;5008331;28;20033;-63
2023/06/06 10:37:21;;;;;;;7.83;4.90;;;;;;;-145.18;100.00;47070.63;5008633;28;20041;-63
2023/06/06 10:39:58;;;;;;;11.80;4.63;;;;;;;-145.18;100.00;47070.63;4990903;28;20042;-62
2023/06/06 10:42:34;;;;;;;8.03;4.60;;;;;;;-145.18;100.00;47060.84;5006326;28;20034;-63
2023/06/06 10:45:00;;;;;;;7.73;4.73;;;;;;;-145.18;100.00;47051.09;5008953;28;20080;-63
2023/06/06 10:47:32;;;;;;;12.00;4.63;;;;;;;-145.18;100.00;47039.34;5012407;28;20434;-63
2023/06/06 10:50:12;;;;;;;10.87;5.20;;;;;;;-145.18;100.00;47029.59;5008509;28;20018;-63
2023/06/06 10:52:48;;;;;;;8.30;4.53;;;;;;;-145.18;100.00;47033.50;5000339;28;20057;-64
2023/06/06 10:55:38;;;;;;;5.97;4.33;;;;;;;-145.18;100.00;47043.28;5004844;28;20050;-63
2023/06/06 10:58:18;;;;;;;8.27;4.30;;;;;;;-145.18;100.00;47039.34;4991414;28;20038;-63
2023/06/06 11:00:45;;;;;;;10.10;4.77;;;;;;;-145.18;100.00;47031.53;5000420;28;20038;-63
2023/06/06 11:03:16;;;;;;;8.63;5.43;;;;;;;-145.18;100.00;47043.28;5010939;28;20034;-63
2023/06/06 11:05:59;;;;;;;9.30;5.30;;;;;;;-145.18;100.00;47045.22;5005227;28;20033;-63